Decoded Metar for KPRN ( in _UNIDENTIFIED) (IATA:N/A) | Meteo·Mobile Aviation Weather
aviador You're here:

KPRN Decoded Metar

in _UNIDENTIFIED
Report Time2018-09-22 17:56:00
UTC Time2018-09-22 18:32:26
Flight Rules vfr VFR
Wind180° at 06 kt
W.Decomp.*RWY 14: 4.5 kt HW 4.0 kt RCW
W.Rank180° ranks 4
Current wind is above 180° avg. (5.5)
Visibility9999 m
Phenomena:N/A
Clouds:Few 038 Hf
Few 047 Hf
Expected CloudBase > 4,800 ft AGL from Temp-Dew spread
CeilingNone
Temp33°C (ISA +19)
Dew Point21°C (49% RH)
Heat Index36.0°C
QNH1018 hPa
Density Alt2,766 ft
Elevation453 ft
Report Wrong Elevation
Raw Report
KPRN 221756Z AUTO 18006KT 10SM FEW038 FEW047 33/21 A3005 RMK AO2
SLP168 T03280206 10333 20222 58009=

Extra information for KPRN:More info

Metar Taf Metar & Taf Last 4 Metars F.Rules Stats Wind Profile Meteogram Temp Stats Metar ALERT Operation Metar Decoded Social comments